sensor_id;sensor_type;location;lat;lon;timestamp;P1;durP1;ratioP1;P2;durP2;ratioP2
10509;SDS011;5303;53.266;10.410;2023-08-12T00:00:32;5.77;;;2.97;;
10509;SDS011;5303;53.266;10.410;2023-08-12T00:02:57;5.10;;;2.93;;
10509;SDS011;5303;53.266;10.410;2023-08-12T00:05:23;4.10;;;3.00;;
10509;SDS011;5303;53.266;10.410;2023-08-12T00:07:48;3.47;;;2.93;;
10509;SDS011;5303;53.266;10.410;2023-08-12T00:10:14;4.10;;;2.90;;
10509;SDS011;5303;53.266;10.410;2023-08-12T00:12:39;3.37;;;2.83;;
10509;SDS011;5303;53.266;10.410;2023-08-12T00:15:05;3.43;;;2.87;;
10509;SDS011;5303;53.266;10.410;2023-08-12T00:17:33;4.57;;;3.10;;
10509;SDS011;5303;53.266;10.410;2023-08-12T00:19:59;4.17;;;2.97;;
10509;SDS011;5303;53.266;10.410;2023-08-12T00:22:24;6.20;;;3.23;;
10509;SDS011;5303;53.266;10.410;2023-08-12T00:24:50;3.20;;;2.93;;
10509;SDS011;5303;53.266;10.410;2023-08-12T00:27:16;3.70;;;2.90;;
10509;SDS011;5303;53.266;10.410;2023-08-12T00:29:42;3.50;;;2.70;;
10509;SDS011;5303;53.266;10.410;2023-08-12T00:32:08;4.10;;;2.70;;
10509;SDS011;5303;53.266;10.410;2023-08-12T00:34:33;2.83;;;2.63;;
10509;SDS011;5303;53.266;10.410;2023-08-12T00:36:59;5.73;;;3.27;;
10509;SDS011;5303;53.266;10.410;2023-08-12T00:39:24;2.87;;;2.60;;
10509;SDS011;5303;53.266;10.410;2023-08-12T00:41:49;3.73;;;3.03;;
10509;SDS011;5303;53.266;10.410;2023-08-12T00:44:15;7.37;;;3.37;;
10509;SDS011;5303;53.266;10.410;2023-08-12T00:46:40;5.20;;;3.40;;
10509;SDS011;5303;53.266;10.410;2023-08-12T00:49:06;5.70;;;2.93;;
10509;SDS011;5303;53.266;10.410;2023-08-12T00:51:32;3.57;;;3.10;;
10509;SDS011;5303;53.266;10.410;2023-08-12T00:53:58;3.63;;;3.27;;
10509;SDS011;5303;53.266;10.410;2023-08-12T00:56:25;3.27;;;2.97;;
10509;SDS011;5303;53.266;10.410;2023-08-12T00:58:52;3.60;;;3.13;;
10509;SDS011;5303;53.266;10.410;2023-08-12T01:01:18;4.67;;;3.10;;
10509;SDS011;5303;53.266;10.410;2023-08-12T01:03:44;4.53;;;3.10;;
10509;SDS011;5303;53.266;10.410;2023-08-12T01:06:09;4.50;;;2.63;;
10509;SDS011;5303;53.266;10.410;2023-08-12T01:08:35;6.13;;;3.30;;
10509;SDS011;5303;53.266;10.410;2023-08-12T01:11:14;6.63;;;3.07;;
10509;SDS011;5303;53.266;10.410;2023-08-12T01:13:46;3.63;;;3.03;;
10509;SDS011;5303;53.266;10.410;2023-08-12T01:16:19;3.87;;;2.87;;
10509;SDS011;5303;53.266;10.410;2023-08-12T01:18:46;3.57;;;2.87;;
10509;SDS011;5303;53.266;10.410;2023-08-12T01:21:15;3.20;;;2.90;;
10509;SDS011;5303;53.266;10.410;2023-08-12T01:23:42;5.47;;;3.30;;
10509;SDS011;5303;53.266;10.410;2023-08-12T01:26:08;5.20;;;3.30;;
10509;SDS011;5303;53.266;10.410;2023-08-12T01:28:33;5.13;;;3.10;;
10509;SDS011;5303;53.266;10.410;2023-08-12T01:34:06;4.30;;;2.80;;
10509;SDS011;5303;53.266;10.410;2023-08-12T01:36:37;5.00;;;3.10;;
10509;SDS011;5303;53.266;10.410;2023-08-12T01:39:04;3.40;;;2.77;;
10509;SDS011;5303;53.266;10.410;2023-08-12T01:41:32;4.10;;;2.53;;
10509;SDS011;5303;53.266;10.410;2023-08-12T01:43:57;3.93;;;3.40;;
10509;SDS011;5303;53.266;10.410;2023-08-12T01:46:24;8.93;;;3.53;;
10509;SDS011;5303;53.266;10.410;2023-08-12T01:48:49;3.77;;;2.93;;
10509;SDS011;5303;53.266;10.410;2023-08-12T01:51:15;5.13;;;3.17;;
10509;SDS011;5303;53.266;10.410;2023-08-12T01:53:40;3.30;;;2.83;;
10509;SDS011;5303;53.266;10.410;2023-08-12T01:56:05;4.23;;;3.10;;
10509;SDS011;5303;53.266;10.410;2023-08-12T01:58:31;5.07;;;3.07;;
10509;SDS011;5303;53.266;10.410;2023-08-12T02:00:56;4.50;;;3.17;;
10509;SDS011;5303;53.266;10.410;2023-08-12T02:03:21;3.60;;;3.03;;
10509;SDS011;5303;53.266;10.410;2023-08-12T02:05:46;3.50;;;3.00;;
10509;SDS011;5303;53.266;10.410;2023-08-12T02:08:12;3.67;;;2.90;;
10509;SDS011;5303;53.266;10.410;2023-08-12T02:10:38;4.87;;;3.23;;
10509;SDS011;5303;53.266;10.410;2023-08-12T02:13:03;4.67;;;3.30;;
10509;SDS011;5303;53.266;10.410;2023-08-12T02:15:28;4.37;;;3.30;;
10509;SDS011;5303;53.266;10.410;2023-08-12T02:17:54;3.73;;;2.90;;
10509;SDS011;5303;53.266;10.410;2023-08-12T02:20:19;3.40;;;2.97;;
10509;SDS011;5303;53.266;10.410;2023-08-12T02:22:44;7.63;;;3.50;;
10509;SDS011;5303;53.266;10.410;2023-08-12T02:25:10;3.30;;;3.00;;
10509;SDS011;5303;53.266;10.410;2023-08-12T02:27:35;3.83;;;3.17;;
10509;SDS011;5303;53.266;10.410;2023-08-12T02:30:00;4.23;;;3.20;;
10509;SDS011;5303;53.266;10.410;2023-08-12T02:32:26;4.33;;;3.50;;
10509;SDS011;5303;53.266;10.410;2023-08-12T02:34:51;4.40;;;3.37;;
10509;SDS011;5303;53.266;10.410;2023-08-12T02:37:16;3.97;;;3.00;;
10509;SDS011;5303;53.266;10.410;2023-08-12T02:39:42;4.47;;;3.37;;
10509;SDS011;5303;53.266;10.410;2023-08-12T02:42:07;4.47;;;3.30;;
10509;SDS011;5303;53.266;10.410;2023-08-12T02:44:32;7.83;;;4.00;;
10509;SDS011;5303;53.266;10.410;2023-08-12T02:46:57;3.70;;;3.30;;
10509;SDS011;5303;53.266;10.410;2023-08-12T02:49:23;5.17;;;3.20;;
10509;SDS011;5303;53.266;10.410;2023-08-12T02:51:48;5.47;;;3.30;;
10509;SDS011;5303;53.266;10.410;2023-08-12T02:54:13;4.27;;;3.40;;
10509;SDS011;5303;53.266;10.410;2023-08-12T02:56:39;4.70;;;3.10;;
10509;SDS011;5303;53.266;10.410;2023-08-12T02:59:05;4.47;;;3.13;;
10509;SDS011;5303;53.266;10.410;2023-08-12T03:01:30;3.40;;;3.10;;
10509;SDS011;5303;53.266;10.410;2023-08-12T03:03:55;5.63;;;3.60;;
10509;SDS011;5303;53.266;10.410;2023-08-12T03:06:21;3.63;;;3.30;;
10509;SDS011;5303;53.266;10.410;2023-08-12T03:08:46;5.53;;;3.50;;
10509;SDS011;5303;53.266;10.410;2023-08-12T03:11:11;3.83;;;3.43;;
10509;SDS011;5303;53.266;10.410;2023-08-12T03:13:36;3.93;;;3.40;;
10509;SDS011;5303;53.266;10.410;2023-08-12T03:16:02;5.80;;;3.60;;
10509;SDS011;5303;53.266;10.410;2023-08-12T03:18:27;4.50;;;3.10;;
10509;SDS011;5303;53.266;10.410;2023-08-12T03:20:52;5.77;;;3.40;;
10509;SDS011;5303;53.266;10.410;2023-08-12T03:23:18;6.73;;;3.30;;
10509;SDS011;5303;53.266;10.410;2023-08-12T03:25:43;5.60;;;3.13;;
10509;SDS011;5303;53.266;10.410;2023-08-12T03:28:08;6.03;;;3.00;;
10509;SDS011;5303;53.266;10.410;2023-08-12T03:30:33;4.57;;;3.30;;
10509;SDS011;5303;53.266;10.410;2023-08-12T03:32:59;5.13;;;3.37;;
10509;SDS011;5303;53.266;10.410;2023-08-12T03:35:24;7.23;;;3.40;;
10509;SDS011;5303;53.266;10.410;2023-08-12T03:37:49;4.40;;;3.20;;
10509;SDS011;5303;53.266;10.410;2023-08-12T03:40:16;4.83;;;3.20;;
10509;SDS011;5303;53.266;10.410;2023-08-12T03:42:41;5.50;;;3.30;;
10509;SDS011;5303;53.266;10.410;2023-08-12T03:45:07;4.87;;;3.37;;
10509;SDS011;5303;53.266;10.410;2023-08-12T03:47:32;4.50;;;2.97;;
10509;SDS011;5303;53.266;10.410;2023-08-12T03:49:58;3.53;;;3.20;;
10509;SDS011;5303;53.266;10.410;2023-08-12T03:52:23;4.57;;;3.37;;
10509;SDS011;5303;53.266;10.410;2023-08-12T03:54:48;6.30;;;3.47;;
10509;SDS011;5303;53.266;10.410;2023-08-12T03:57:14;3.27;;;2.97;;
10509;SDS011;5303;53.266;10.410;2023-08-12T03:59:39;3.90;;;3.50;;
10509;SDS011;5303;53.266;10.410;2023-08-12T04:02:04;6.27;;;3.37;;
10509;SDS011;5303;53.266;10.410;2023-08-12T04:04:31;4.57;;;3.57;;
10509;SDS011;5303;53.266;10.410;2023-08-12T04:06:56;5.80;;;3.30;;
10509;SDS011;5303;53.266;10.410;2023-08-12T04:09:21;4.70;;;3.80;;
10509;SDS011;5303;53.266;10.410;2023-08-12T04:11:47;3.70;;;3.40;;
10509;SDS011;5303;53.266;10.410;2023-08-12T04:14:15;6.77;;;3.43;;
10509;SDS011;5303;53.266;10.410;2023-08-12T04:16:40;6.33;;;3.30;;
10509;SDS011;5303;53.266;10.410;2023-08-12T04:19:05;4.30;;;3.60;;
10509;SDS011;5303;53.266;10.410;2023-08-12T04:21:31;5.33;;;3.57;;
10509;SDS011;5303;53.266;10.410;2023-08-12T04:23:57;3.83;;;3.40;;
10509;SDS011;5303;53.266;10.410;2023-08-12T04:26:22;4.17;;;3.67;;
10509;SDS011;5303;53.266;10.410;2023-08-12T04:28:48;17.87;;;4.23;;
10509;SDS011;5303;53.266;10.410;2023-08-12T04:31:13;6.53;;;3.73;;
10509;SDS011;5303;53.266;10.410;2023-08-12T04:33:38;7.77;;;3.70;;
10509;SDS011;5303;53.266;10.410;2023-08-12T04:36:04;7.43;;;3.50;;
10509;SDS011;5303;53.266;10.410;2023-08-12T04:38:29;4.97;;;3.37;;
10509;SDS011;5303;53.266;10.410;2023-08-12T04:40:56;4.37;;;3.30;;
10509;SDS011;5303;53.266;10.410;2023-08-12T04:43:21;4.43;;;3.30;;
10509;SDS011;5303;53.266;10.410;2023-08-12T04:45:47;8.53;;;3.80;;
10509;SDS011;5303;53.266;10.410;2023-08-12T04:48:12;4.57;;;3.63;;
10509;SDS011;5303;53.266;10.410;2023-08-12T04:50:38;6.07;;;3.77;;
10509;SDS011;5303;53.266;10.410;2023-08-12T04:53:04;5.23;;;3.73;;
10509;SDS011;5303;53.266;10.410;2023-08-12T04:55:30;6.03;;;3.50;;
10509;SDS011;5303;53.266;10.410;2023-08-12T04:57:56;6.17;;;3.70;;
10509;SDS011;5303;53.266;10.410;2023-08-12T05:00:22;5.50;;;3.53;;
10509;SDS011;5303;53.266;10.410;2023-08-12T05:02:48;5.37;;;3.70;;
10509;SDS011;5303;53.266;10.410;2023-08-12T05:05:13;3.70;;;3.40;;
10509;SDS011;5303;53.266;10.410;2023-08-12T05:07:39;4.07;;;3.70;;
10509;SDS011;5303;53.266;10.410;2023-08-12T05:10:04;4.50;;;3.73;;
10509;SDS011;5303;53.266;10.410;2023-08-12T05:12:30;3.83;;;3.53;;
10509;SDS011;5303;53.266;10.410;2023-08-12T05:14:55;10.47;;;4.77;;
10509;SDS011;5303;53.266;10.410;2023-08-12T05:17:21;6.00;;;3.83;;
10509;SDS011;5303;53.266;10.410;2023-08-12T05:19:46;3.97;;;3.50;;
10509;SDS011;5303;53.266;10.410;2023-08-12T05:22:12;5.73;;;3.57;;
10509;SDS011;5303;53.266;10.410;2023-08-12T05:24:37;5.90;;;3.60;;
10509;SDS011;5303;53.266;10.410;2023-08-12T05:27:02;5.33;;;3.57;;
10509;SDS011;5303;53.266;10.410;2023-08-12T05:29:29;6.63;;;3.60;;
10509;SDS011;5303;53.266;10.410;2023-08-12T05:31:55;4.93;;;3.33;;
10509;SDS011;5303;53.266;10.410;2023-08-12T05:34:20;3.97;;;3.43;;
10509;SDS011;5303;53.266;10.410;2023-08-12T05:36:46;6.30;;;3.83;;
10509;SDS011;5303;53.266;10.410;2023-08-12T05:39:11;5.70;;;3.90;;
10509;SDS011;5303;53.266;10.410;2023-08-12T05:41:36;4.90;;;3.60;;
10509;SDS011;5303;53.266;10.410;2023-08-12T05:44:01;6.50;;;4.23;;
10509;SDS011;5303;53.266;10.410;2023-08-12T05:46:27;4.47;;;3.90;;
10509;SDS011;5303;53.266;10.410;2023-08-12T05:48:52;8.63;;;4.00;;
10509;SDS011;5303;53.266;10.410;2023-08-12T05:51:17;6.57;;;4.37;;
10509;SDS011;5303;53.266;10.410;2023-08-12T05:53:43;4.83;;;3.83;;
10509;SDS011;5303;53.266;10.410;2023-08-12T05:56:08;5.63;;;3.70;;
10509;SDS011;5303;53.266;10.410;2023-08-12T05:58:33;5.63;;;3.80;;
10509;SDS011;5303;53.266;10.410;2023-08-12T06:00:59;7.17;;;4.10;;
10509;SDS011;5303;53.266;10.410;2023-08-12T06:03:24;6.90;;;3.93;;
10509;SDS011;5303;53.266;10.410;2023-08-12T06:05:49;5.13;;;4.00;;
10509;SDS011;5303;53.266;10.410;2023-08-12T06:08:15;4.43;;;4.03;;
10509;SDS011;5303;53.266;10.410;2023-08-12T06:10:40;5.60;;;4.10;;
10509;SDS011;5303;53.266;10.410;2023-08-12T06:13:06;6.93;;;4.30;;
10509;SDS011;5303;53.266;10.410;2023-08-12T06:15:31;6.07;;;3.90;;
10509;SDS011;5303;53.266;10.410;2023-08-12T06:17:56;5.27;;;3.97;;
10509;SDS011;5303;53.266;10.410;2023-08-12T06:20:23;6.13;;;4.17;;
10509;SDS011;5303;53.266;10.410;2023-08-12T06:22:49;4.55;;;3.70;;
10509;SDS011;5303;53.266;10.410;2023-08-12T06:25:14;6.37;;;4.90;;
10509;SDS011;5303;53.266;10.410;2023-08-12T06:27:40;5.10;;;4.07;;
10509;SDS011;5303;53.266;10.410;2023-08-12T06:30:05;5.17;;;4.20;;
10509;SDS011;5303;53.266;10.410;2023-08-12T06:32:31;6.20;;;4.80;;
10509;SDS011;5303;53.266;10.410;2023-08-12T06:34:58;4.43;;;3.93;;
10509;SDS011;5303;53.266;10.410;2023-08-12T06:37:23;10.35;;;5.55;;
10509;SDS011;5303;53.266;10.410;2023-08-12T06:39:48;6.30;;;4.00;;
10509;SDS011;5303;53.266;10.410;2023-08-12T06:42:14;6.28;;;4.20;;
10509;SDS011;5303;53.266;10.410;2023-08-12T06:44:40;9.45;;;4.15;;
10509;SDS011;5303;53.266;10.410;2023-08-12T06:47:05;5.28;;;4.18;;
10509;SDS011;5303;53.266;10.410;2023-08-12T06:49:30;7.17;;;4.47;;
10509;SDS011;5303;53.266;10.410;2023-08-12T06:51:56;6.10;;;4.65;;
10509;SDS011;5303;53.266;10.410;2023-08-12T06:54:21;6.47;;;4.60;;
10509;SDS011;5303;53.266;10.410;2023-08-12T06:56:47;4.70;;;4.30;;
10509;SDS011;5303;53.266;10.410;2023-08-12T06:59:13;6.18;;;4.65;;
10509;SDS011;5303;53.266;10.410;2023-08-12T07:01:38;6.85;;;4.53;;
10509;SDS011;5303;53.266;10.410;2023-08-12T07:04:04;5.72;;;4.28;;
10509;SDS011;5303;53.266;10.410;2023-08-12T07:06:29;9.00;;;4.75;;
10509;SDS011;5303;53.266;10.410;2023-08-12T07:08:54;8.10;;;4.57;;
10509;SDS011;5303;53.266;10.410;2023-08-12T07:11:21;7.60;;;4.97;;
10509;SDS011;5303;53.266;10.410;2023-08-12T07:13:46;5.35;;;4.85;;
10509;SDS011;5303;53.266;10.410;2023-08-12T07:16:11;5.85;;;4.97;;
10509;SDS011;5303;53.266;10.410;2023-08-12T07:18:36;6.65;;;4.72;;
10509;SDS011;5303;53.266;10.410;2023-08-12T07:21:02;7.00;;;4.60;;
10509;SDS011;5303;53.266;10.410;2023-08-12T07:23:27;5.22;;;4.65;;
10509;SDS011;5303;53.266;10.410;2023-08-12T07:25:52;5.72;;;4.88;;
10509;SDS011;5303;53.266;10.410;2023-08-12T07:28:18;6.50;;;4.53;;
10509;SDS011;5303;53.266;10.410;2023-08-12T07:30:43;8.23;;;4.68;;
10509;SDS011;5303;53.266;10.410;2023-08-12T07:33:08;7.07;;;4.70;;
10509;SDS011;5303;53.266;10.410;2023-08-12T07:35:34;7.47;;;5.32;;
10509;SDS011;5303;53.266;10.410;2023-08-12T07:37:59;5.30;;;4.70;;
10509;SDS011;5303;53.266;10.410;2023-08-12T07:40:24;6.28;;;5.00;;
10509;SDS011;5303;53.266;10.410;2023-08-12T07:42:50;6.03;;;5.10;;
10509;SDS011;5303;53.266;10.410;2023-08-12T07:45:15;5.20;;;4.35;;
10509;SDS011;5303;53.266;10.410;2023-08-12T07:47:40;5.47;;;4.95;;
10509;SDS011;5303;53.266;10.410;2023-08-12T07:50:06;7.93;;;5.18;;
10509;SDS011;5303;53.266;10.410;2023-08-12T07:52:32;5.22;;;4.72;;
10509;SDS011;5303;53.266;10.410;2023-08-12T07:54:57;7.57;;;4.93;;
10509;SDS011;5303;53.266;10.410;2023-08-12T07:57:22;6.13;;;4.93;;
10509;SDS011;5303;53.266;10.410;2023-08-12T07:59:49;5.78;;;5.28;;
10509;SDS011;5303;53.266;10.410;2023-08-12T08:02:15;6.00;;;5.40;;
10509;SDS011;5303;53.266;10.410;2023-08-12T08:04:40;5.50;;;5.00;;
10509;SDS011;5303;53.266;10.410;2023-08-12T08:07:05;6.63;;;5.03;;
10509;SDS011;5303;53.266;10.410;2023-08-12T08:09:31;7.60;;;6.18;;
10509;SDS011;5303;53.266;10.410;2023-08-12T08:11:56;7.38;;;5.47;;
10509;SDS011;5303;53.266;10.410;2023-08-12T08:14:21;8.63;;;6.22;;
10509;SDS011;5303;53.266;10.410;2023-08-12T08:16:46;6.63;;;5.43;;
10509;SDS011;5303;53.266;10.410;2023-08-12T08:19:12;6.22;;;5.00;;
10509;SDS011;5303;53.266;10.410;2023-08-12T08:21:38;6.10;;;5.50;;
10509;SDS011;5303;53.266;10.410;2023-08-12T08:24:03;7.50;;;6.00;;
10509;SDS011;5303;53.266;10.410;2023-08-12T08:26:28;6.13;;;5.40;;
10509;SDS011;5303;53.266;10.410;2023-08-12T08:28:54;6.18;;;5.55;;
10509;SDS011;5303;53.266;10.410;2023-08-12T08:31:19;6.43;;;5.72;;
10509;SDS011;5303;53.266;10.410;2023-08-12T08:33:44;6.47;;;5.85;;
10509;SDS011;5303;53.266;10.410;2023-08-12T08:36:09;6.90;;;6.13;;
10509;SDS011;5303;53.266;10.410;2023-08-12T08:38:35;8.73;;;5.90;;
10509;SDS011;5303;53.266;10.410;2023-08-12T08:41:01;9.70;;;6.30;;
10509;SDS011;5303;53.266;10.410;2023-08-12T08:43:30;7.82;;;6.28;;
10509;SDS011;5303;53.266;10.410;2023-08-12T08:45:57;7.85;;;6.05;;
10509;SDS011;5303;53.266;10.410;2023-08-12T08:48:24;7.75;;;5.80;;
10509;SDS011;5303;53.266;10.410;2023-08-12T08:50:50;6.10;;;5.60;;
10509;SDS011;5303;53.266;10.410;2023-08-12T08:53:16;7.30;;;6.18;;
10509;SDS011;5303;53.266;10.410;2023-08-12T08:55:43;8.82;;;6.55;;
10509;SDS011;5303;53.266;10.410;2023-08-12T08:58:09;8.85;;;6.10;;
10509;SDS011;5303;53.266;10.410;2023-08-12T09:00:35;8.10;;;7.25;;
10509;SDS011;5303;53.266;10.410;2023-08-12T09:03:02;8.27;;;6.63;;
10509;SDS011;5303;53.266;10.410;2023-08-12T09:05:30;7.93;;;6.95;;
10509;SDS011;5303;53.266;10.410;2023-08-12T09:07:57;7.50;;;6.50;;
10509;SDS011;5303;53.266;10.410;2023-08-12T09:10:24;7.45;;;6.60;;
10509;SDS011;5303;53.266;10.410;2023-08-12T09:12:51;7.47;;;6.75;;
10509;SDS011;5303;53.266;10.410;2023-08-12T09:15:19;6.03;;;5.30;;
10509;SDS011;5303;53.266;10.410;2023-08-12T09:17:44;8.90;;;6.55;;
10509;SDS011;5303;53.266;10.410;2023-08-12T09:20:10;6.68;;;5.82;;
10509;SDS011;5303;53.266;10.410;2023-08-12T09:22:42;6.22;;;5.63;;
10509;SDS011;5303;53.266;10.410;2023-08-12T09:25:09;7.53;;;6.53;;
10509;SDS011;5303;53.266;10.410;2023-08-12T09:27:38;8.13;;;6.40;;
10509;SDS011;5303;53.266;10.410;2023-08-12T09:30:03;8.63;;;6.13;;
10509;SDS011;5303;53.266;10.410;2023-08-12T09:32:29;7.18;;;5.78;;
10509;SDS011;5303;53.266;10.410;2023-08-12T09:34:55;6.70;;;6.00;;
10509;SDS011;5303;53.266;10.410;2023-08-12T09:37:21;6.25;;;5.65;;
10509;SDS011;5303;53.266;10.410;2023-08-12T09:39:50;7.75;;;6.53;;
10509;SDS011;5303;53.266;10.410;2023-08-12T09:42:16;7.93;;;6.47;;
10509;SDS011;5303;53.266;10.410;2023-08-12T09:44:43;10.40;;;7.00;;
10509;SDS011;5303;53.266;10.410;2023-08-12T09:47:09;7.40;;;6.30;;
10509;SDS011;5303;53.266;10.410;2023-08-12T09:49:34;7.57;;;6.20;;
10509;SDS011;5303;53.266;10.410;2023-08-12T09:52:00;7.03;;;6.15;;
10509;SDS011;5303;53.266;10.410;2023-08-12T09:54:27;8.27;;;6.75;;
10509;SDS011;5303;53.266;10.410;2023-08-12T09:56:54;9.48;;;6.97;;
10509;SDS011;5303;53.266;10.410;2023-08-12T09:59:23;9.40;;;6.93;;
10509;SDS011;5303;53.266;10.410;2023-08-12T10:01:49;6.80;;;5.70;;
10509;SDS011;5303;53.266;10.410;2023-08-12T10:04:17;8.57;;;6.05;;
10509;SDS011;5303;53.266;10.410;2023-08-12T10:06:46;9.50;;;6.30;;
10509;SDS011;5303;53.266;10.410;2023-08-12T10:09:12;6.90;;;6.15;;
10509;SDS011;5303;53.266;10.410;2023-08-12T10:11:40;7.50;;;6.60;;
10509;SDS011;5303;53.266;10.410;2023-08-12T10:14:07;7.43;;;5.95;;
10509;SDS011;5303;53.266;10.410;2023-08-12T10:16:34;7.88;;;5.80;;
10509;SDS011;5303;53.266;10.410;2023-08-12T10:19:00;8.35;;;6.18;;
10509;SDS011;5303;53.266;10.410;2023-08-12T10:21:27;8.68;;;6.63;;
10509;SDS011;5303;53.266;10.410;2023-08-12T10:23:53;7.47;;;6.30;;
10509;SDS011;5303;53.266;10.410;2023-08-12T10:26:18;7.45;;;5.88;;
10509;SDS011;5303;53.266;10.410;2023-08-12T10:28:44;5.65;;;4.85;;
10509;SDS011;5303;53.266;10.410;2023-08-12T10:31:10;7.63;;;6.40;;
10509;SDS011;5303;53.266;10.410;2023-08-12T10:33:39;6.50;;;5.80;;
10509;SDS011;5303;53.266;10.410;2023-08-12T10:36:06;8.40;;;6.03;;
10509;SDS011;5303;53.266;10.410;2023-08-12T10:38:32;7.38;;;5.40;;
10509;SDS011;5303;53.266;10.410;2023-08-12T10:46:49;6.93;;;5.70;;
10509;SDS011;5303;53.266;10.410;2023-08-12T10:49:14;8.80;;;5.63;;
10509;SDS011;5303;53.266;10.410;2023-08-12T11:04:42;8.68;;;5.90;;
10509;SDS011;5303;53.266;10.410;2023-08-12T11:10:13;8.48;;;6.30;;
10509;SDS011;5303;53.266;10.410;2023-08-12T11:12:48;9.80;;;6.22;;
10509;SDS011;5303;53.266;10.410;2023-08-12T11:15:19;5.97;;;5.47;;
10509;SDS011;5303;53.266;10.410;2023-08-12T11:18:03;13.13;;;9.68;;
10509;SDS011;5303;53.266;10.410;2023-08-12T11:20:30;7.63;;;6.93;;
10509;SDS011;5303;53.266;10.410;2023-08-12T11:22:55;8.57;;;6.40;;
10509;SDS011;5303;53.266;10.410;2023-08-12T11:25:23;7.22;;;6.35;;
10509;SDS011;5303;53.266;10.410;2023-08-12T11:27:48;9.25;;;7.65;;
10509;SDS011;5303;53.266;10.410;2023-08-12T11:30:14;9.23;;;7.15;;
10509;SDS011;5303;53.266;10.410;2023-08-12T11:32:45;6.28;;;5.60;;
10509;SDS011;5303;53.266;10.410;2023-08-12T11:35:12;8.60;;;7.65;;
10509;SDS011;5303;53.266;10.410;2023-08-12T11:37:39;13.43;;;12.05;;
10509;SDS011;5303;53.266;10.410;2023-08-12T11:40:09;14.68;;;11.95;;
10509;SDS011;5303;53.266;10.410;2023-08-12T11:42:36;7.88;;;7.07;;
10509;SDS011;5303;53.266;10.410;2023-08-12T11:45:02;9.85;;;8.85;;
10509;SDS011;5303;53.266;10.410;2023-08-12T11:47:28;7.43;;;6.78;;
10509;SDS011;5303;53.266;10.410;2023-08-12T11:49:53;7.32;;;6.05;;
10509;SDS011;5303;53.266;10.410;2023-08-12T11:52:19;8.63;;;5.55;;
10509;SDS011;5303;53.266;10.410;2023-08-12T11:54:44;6.63;;;6.00;;
10509;SDS011;5303;53.266;10.410;2023-08-12T11:57:10;7.82;;;6.40;;
10509;SDS011;5303;53.266;10.410;2023-08-12T11:59:36;6.68;;;5.97;;
10509;SDS011;5303;53.266;10.410;2023-08-12T12:02:02;9.57;;;6.43;;
10509;SDS011;5303;53.266;10.410;2023-08-12T12:04:29;7.65;;;5.57;;
10509;SDS011;5303;53.266;10.410;2023-08-12T12:06:55;7.72;;;6.25;;
10509;SDS011;5303;53.266;10.410;2023-08-12T12:09:21;7.85;;;6.38;;
10509;SDS011;5303;53.266;10.410;2023-08-12T12:11:46;8.30;;;6.18;;
10509;SDS011;5303;53.266;10.410;2023-08-12T12:14:16;9.82;;;7.22;;
10509;SDS011;5303;53.266;10.410;2023-08-12T12:16:43;9.05;;;6.20;;
10509;SDS011;5303;53.266;10.410;2023-08-12T12:19:12;11.35;;;6.65;;
10509;SDS011;5303;53.266;10.410;2023-08-12T12:21:41;9.98;;;6.47;;
10509;SDS011;5303;53.266;10.410;2023-08-12T12:24:08;8.23;;;6.50;;
10509;SDS011;5303;53.266;10.410;2023-08-12T12:26:34;7.95;;;6.38;;
10509;SDS011;5303;53.266;10.410;2023-08-12T12:28:59;10.23;;;6.65;;
10509;SDS011;5303;53.266;10.410;2023-08-12T12:31:25;11.13;;;6.38;;
10509;SDS011;5303;53.266;10.410;2023-08-12T12:33:51;8.95;;;6.80;;
10509;SDS011;5303;53.266;10.410;2023-08-12T12:36:17;7.25;;;6.60;;
10509;SDS011;5303;53.266;10.410;2023-08-12T12:38:43;9.60;;;6.50;;
10509;SDS011;5303;53.266;10.410;2023-08-12T12:41:08;9.10;;;6.90;;
10509;SDS011;5303;53.266;10.410;2023-08-12T12:43:34;7.43;;;6.20;;
10509;SDS011;5303;53.266;10.410;2023-08-12T12:45:59;7.70;;;6.97;;
10509;SDS011;5303;53.266;10.410;2023-08-12T12:48:24;7.30;;;6.30;;
10509;SDS011;5303;53.266;10.410;2023-08-12T12:50:49;7.85;;;6.18;;
10509;SDS011;5303;53.266;10.410;2023-08-12T12:53:15;11.60;;;7.97;;
10509;SDS011;5303;53.266;10.410;2023-08-12T12:55:40;8.20;;;7.10;;
10509;SDS011;5303;53.266;10.410;2023-08-12T12:58:05;9.32;;;6.53;;
10509;SDS011;5303;53.266;10.410;2023-08-12T13:00:31;7.13;;;6.43;;
10509;SDS011;5303;53.266;10.410;2023-08-12T13:02:56;7.45;;;6.03;;
10509;SDS011;5303;53.266;10.410;2023-08-12T13:05:21;9.50;;;5.70;;
10509;SDS011;5303;53.266;10.410;2023-08-12T13:07:46;9.30;;;6.78;;
10509;SDS011;5303;53.266;10.410;2023-08-12T13:10:12;10.07;;;6.45;;
10509;SDS011;5303;53.266;10.410;2023-08-12T13:12:37;6.85;;;5.82;;
10509;SDS011;5303;53.266;10.410;2023-08-12T13:15:02;7.65;;;5.85;;
10509;SDS011;5303;53.266;10.410;2023-08-12T13:17:28;10.70;;;6.07;;
10509;SDS011;5303;53.266;10.410;2023-08-12T13:19:53;6.18;;;5.57;;
10509;SDS011;5303;53.266;10.410;2023-08-12T13:22:22;8.50;;;5.93;;
10509;SDS011;5303;53.266;10.410;2023-08-12T13:24:47;7.95;;;5.53;;
10509;SDS011;5303;53.266;10.410;2023-08-12T13:27:13;6.40;;;5.47;;
10509;SDS011;5303;53.266;10.410;2023-08-12T13:29:38;8.07;;;5.90;;
10509;SDS011;5303;53.266;10.410;2023-08-12T13:32:03;6.40;;;5.38;;
10509;SDS011;5303;53.266;10.410;2023-08-12T13:34:29;6.95;;;5.88;;
10509;SDS011;5303;53.266;10.410;2023-08-12T13:36:54;9.45;;;5.68;;
10509;SDS011;5303;53.266;10.410;2023-08-12T13:39:19;7.25;;;5.53;;
10509;SDS011;5303;53.266;10.410;2023-08-12T13:41:45;6.63;;;5.90;;
10509;SDS011;5303;53.266;10.410;2023-08-12T13:44:11;6.22;;;5.35;;
10509;SDS011;5303;53.266;10.410;2023-08-12T13:46:36;6.50;;;5.10;;
10509;SDS011;5303;53.266;10.410;2023-08-12T13:49:01;6.32;;;5.28;;
10509;SDS011;5303;53.266;10.410;2023-08-12T13:51:27;7.13;;;5.50;;
10509;SDS011;5303;53.266;10.410;2023-08-12T13:53:53;6.47;;;5.43;;
10509;SDS011;5303;53.266;10.410;2023-08-12T13:56:18;7.47;;;5.47;;
10509;SDS011;5303;53.266;10.410;2023-08-12T13:58:45;7.03;;;5.80;;
10509;SDS011;5303;53.266;10.410;2023-08-12T14:01:10;6.80;;;5.55;;
10509;SDS011;5303;53.266;10.410;2023-08-12T14:03:36;7.00;;;5.57;;
10509;SDS011;5303;53.266;10.410;2023-08-12T14:06:02;8.18;;;5.38;;
10509;SDS011;5303;53.266;10.410;2023-08-12T14:08:27;8.40;;;5.80;;
10509;SDS011;5303;53.266;10.410;2023-08-12T14:10:52;6.78;;;5.65;;
10509;SDS011;5303;53.266;10.410;2023-08-12T14:13:18;6.05;;;5.40;;
10509;SDS011;5303;53.266;10.410;2023-08-12T14:15:43;6.22;;;5.20;;
10509;SDS011;5303;53.266;10.410;2023-08-12T14:18:09;6.45;;;5.47;;
10509;SDS011;5303;53.266;10.410;2023-08-12T14:20:34;5.88;;;5.30;;
10509;SDS011;5303;53.266;10.410;2023-08-12T14:22:59;6.50;;;5.85;;
10509;SDS011;5303;53.266;10.410;2023-08-12T14:25:24;5.90;;;5.40;;
10509;SDS011;5303;53.266;10.410;2023-08-12T14:27:50;9.02;;;5.65;;
10509;SDS011;5303;53.266;10.410;2023-08-12T14:30:17;7.38;;;5.70;;
10509;SDS011;5303;53.266;10.410;2023-08-12T14:32:43;8.32;;;6.55;;
10509;SDS011;5303;53.266;10.410;2023-08-12T14:35:08;9.27;;;6.25;;
10509;SDS011;5303;53.266;10.410;2023-08-12T14:37:34;7.28;;;6.55;;
10509;SDS011;5303;53.266;10.410;2023-08-12T14:39:59;8.93;;;7.20;;
10509;SDS011;5303;53.266;10.410;2023-08-12T14:42:26;11.68;;;8.07;;
10509;SDS011;5303;53.266;10.410;2023-08-12T14:44:51;10.10;;;7.57;;
10509;SDS011;5303;53.266;10.410;2023-08-12T14:47:16;10.80;;;7.72;;
10509;SDS011;5303;53.266;10.410;2023-08-12T14:49:41;8.77;;;7.93;;
10509;SDS011;5303;53.266;10.410;2023-08-12T14:52:14;9.40;;;8.48;;
10509;SDS011;5303;53.266;10.410;2023-08-12T14:54:44;10.85;;;9.75;;
10509;SDS011;5303;53.266;10.410;2023-08-12T14:57:09;10.52;;;9.50;;
10509;SDS011;5303;53.266;10.410;2023-08-12T14:59:34;10.50;;;9.50;;
10509;SDS011;5303;53.266;10.410;2023-08-12T15:01:59;12.38;;;9.82;;
10509;SDS011;5303;53.266;10.410;2023-08-12T15:04:25;9.55;;;8.55;;